Time;durP1;ratioP1;P1;durP2;ratioP2;P2;SDS_P1;SDS_P2;PMS_P1;PMS_P2;Temp;Humidity;BMP_temperature;BMP_pressure;BME280_temperature;BME280_humidity;BME280_pressure;Samples;Min_cycle;Max_cycle;Signal;HPM_P1;HPM_P2
2021/11/09 00:00:31;;;;;;;33.37;19.83;;;;;;;-1.59;100.00;96622.72;1024554;28;20131;-70
2021/11/09 00:01:03;;;;;;;34.83;20.67;;;;;;;-1.60;100.00;96618.56;1026960;28;20019;-71
2021/11/09 00:01:42;;;;;;;39.97;20.40;;;;;;;-1.60;100.00;96616.00;1022792;28;20098;-71
2021/11/09 00:02:12;;;;;;;35.63;19.50;;;;;;;-1.60;100.00;96619.34;1022636;28;20023;-71
2021/11/09 00:02:45;;;;;;;35.10;20.37;;;;;;;-1.68;100.00;96604.75;1024064;28;20364;-71
2021/11/09 00:03:15;;;;;;;34.35;19.05;;;;;;;-1.62;100.00;96616.13;1026262;28;20058;-71
2021/11/09 00:03:58;;;;;;;36.23;18.90;;;;;;;-1.60;100.00;96619.34;1032293;28;20034;-70
2021/11/09 00:04:36;;;;;;;36.90;18.25;;;;;;;-1.67;100.00;96608.13;1026641;28;20266;-70
2021/11/09 00:05:09;;;;;;;33.47;18.75;;;;;;;-1.83;100.00;96587.56;1016156;29;20299;-70
2021/11/09 00:05:49;;;;;;;37.65;20.55;;;;;;;-1.66;100.00;96617.44;1013921;29;20079;-71
2021/11/09 00:06:25;;;;;;;35.95;18.95;;;;;;;-1.63;100.00;96616.31;1025112;28;20023;-71
2021/11/09 00:07:05;;;;;;;34.13;17.75;;;;;;;-1.71;100.00;96606.81;1022096;29;20176;-70
2021/11/09 00:07:51;;;;;;;34.88;18.58;;;;;;;-1.84;100.00;96585.97;1022693;28;20506;-71
2021/11/09 00:08:27;;;;;;;27.88;17.25;;;;;;;-1.71;100.00;96615.38;1011128;29;20029;-71
2021/11/09 00:09:07;;;;;;;34.38;16.90;;;;;;;-1.69;100.00;96616.00;1019065;28;20034;-71
2021/11/09 00:10:28;;;;;;;37.00;17.65;;;;;;;-1.68;100.00;96620.19;1022575;29;20533;-70
2021/11/09 00:10:58;;;;;;;33.05;18.20;;;;;;;-1.68;100.00;96627.91;1018054;29;20119;-69
2021/11/09 00:11:29;;;;;;;33.73;17.93;;;;;;;-1.85;100.00;96594.63;1021743;29;20051;-71
2021/11/09 00:12:00;;;;;;;34.23;18.70;;;;;;;-1.69;100.00;96620.34;1022879;28;20084;-70
2021/11/09 00:12:32;;;;;;;30.43;18.03;;;;;;;-1.67;100.00;96629.50;1026858;28;20077;-70
2021/11/09 00:13:03;;;;;;;33.17;18.13;;;;;;;-1.75;100.00;96616.63;1014495;29;20420;-71
2021/11/09 00:13:34;;;;;;;36.17;18.17;;;;;;;-1.68;100.00;96622.75;1022876;29;20086;-71
2021/11/09 00:14:04;;;;;;;31.87;17.13;;;;;;;-1.70;100.00;96624.69;1022893;29;20275;-70
2021/11/09 00:14:34;;;;;;;37.77;19.33;;;;;;;-1.76;100.00;96617.63;1030742;28;20097;-70
2021/11/09 00:15:07;;;;;;;35.20;19.70;;;;;;;-1.72;100.00;96618.88;1026357;28;20035;-68
2021/11/09 00:15:37;;;;;;;38.40;17.42;;;;;;;-1.71;100.00;96632.53;1026841;28;20130;-71
2021/11/09 00:16:08;;;;;;;33.93;18.00;;;;;;;-1.72;100.00;96625.81;1018636;29;20048;-70
2021/11/09 00:16:38;;;;;;;31.50;18.73;;;;;;;-1.72;100.00;96625.81;1019518;28;20031;-70
2021/11/09 00:17:09;;;;;;;41.93;19.00;;;;;;;-1.72;100.00;96626.59;1026704;28;20382;-70
2021/11/09 00:17:39;;;;;;;32.07;17.70;;;;;;;-1.72;100.00;96628.38;1030269;28;20038;-71
2021/11/09 00:18:10;;;;;;;39.63;18.40;;;;;;;-1.73;100.00;96630.16;1029927;28;20401;-70
2021/11/09 00:18:41;;;;;;;32.00;16.85;;;;;;;-1.77;100.00;96621.16;1026624;28;20035;-70
2021/11/09 00:19:11;;;;;;;30.80;17.40;;;;;;;-1.73;100.00;96632.72;1022685;29;20062;-70
2021/11/09 00:19:41;;;;;;;34.17;17.40;;;;;;;-1.71;100.00;96630.81;1017947;29;20565;-70
2021/11/09 00:20:14;;;;;;;34.53;16.97;;;;;;;-1.78;100.00;96622.09;1018761;29;20024;-70
2021/11/09 00:20:44;;;;;;;31.38;17.60;;;;;;;-1.70;100.00;96634.16;1023009;28;20686;-70
2021/11/09 00:21:18;;;;;;;31.80;17.47;;;;;;;-1.69;100.00;96630.63;1030347;28;20026;-70
2021/11/09 00:21:48;;;;;;;31.27;16.77;;;;;;;-1.67;100.00;96634.66;1026098;28;20011;-70
2021/11/09 00:22:19;;;;;;;29.23;16.93;;;;;;;-1.65;100.00;96631.91;1018492;29;20467;-70
2021/11/09 00:22:49;;;;;;;27.63;16.33;;;;;;;-1.66;100.00;96638.03;1010095;29;20492;-69
2021/11/09 00:23:20;;;;;;;32.13;17.47;;;;;;;-1.63;100.00;96635.13;1022647;28;20110;-70
2021/11/09 00:23:53;;;;;;;29.67;15.90;;;;;;;-1.61;100.00;96637.53;1022922;29;20015;-70
2021/11/09 00:24:24;;;;;;;30.52;16.08;;;;;;;-1.61;100.00;96637.53;1018921;29;20507;-70
2021/11/09 00:24:54;;;;;;;33.87;17.47;;;;;;;-1.63;100.00;96642.84;1018475;28;20032;-70
2021/11/09 00:25:25;;;;;;;30.07;16.40;;;;;;;-1.63;100.00;96634.31;1023093;28;20471;-70
2021/11/09 00:25:55;;;;;;;39.07;19.10;;;;;;;-1.64;100.00;96635.28;1018884;29;20023;-70
2021/11/09 00:26:27;;;;;;;32.37;16.97;;;;;;;-1.75;100.00;96621.78;1017120;29;20526;-71
2021/11/09 00:26:57;;;;;;;27.20;16.52;;;;;;;-1.68;100.00;96635.63;1019405;28;20030;-71
2021/11/09 00:27:28;;;;;;;30.70;16.47;;;;;;;-1.68;100.00;96638.19;1027169;28;20025;-70
2021/11/09 00:27:58;;;;;;;33.57;17.03;;;;;;;-1.73;100.00;96630.16;1029304;28;20026;-70
2021/11/09 00:28:29;;;;;;;35.80;17.77;;;;;;;-1.71;100.00;96635.94;1025121;28;20395;-69
2021/11/09 00:28:59;;;;;;;31.20;17.13;;;;;;;-1.71;100.00;96632.53;1026416;28;20025;-69
2021/11/09 00:29:30;;;;;;;29.47;16.30;;;;;;;-1.74;100.00;96628.56;1026855;28;20034;-71
2021/11/09 00:30:01;;;;;;;33.63;16.83;;;;;;;-1.75;100.00;96626.13;1029340;28;20041;-70
2021/11/09 00:30:31;;;;;;;32.58;17.85;;;;;;;-1.74;100.00;96632.91;1030994;28;20037;-70
2021/11/09 00:31:02;;;;;;;32.70;17.40;;;;;;;-1.72;100.00;96636.09;1022760;29;20078;-70
2021/11/09 00:31:33;;;;;;;31.43;17.47;;;;;;;-1.77;100.00;96636.59;1018723;29;20023;-70
2021/11/09 00:32:05;;;;;;;30.50;17.20;;;;;;;-1.75;100.00;96637.22;1023351;28;20065;-70
2021/11/09 00:32:37;;;;;;;40.03;17.60;;;;;;;-1.75;100.00;96636.41;1027453;28;20058;-70
2021/11/09 00:33:08;;;;;;;34.30;16.20;;;;;;;-1.75;100.00;96632.06;1029450;28;20030;-70
2021/11/09 00:33:40;;;;;;;29.20;16.77;;;;;;;-1.82;100.00;96620.84;1027128;28;20031;-70
2021/11/09 00:34:10;;;;;;;35.15;16.77;;;;;;;-1.85;100.00;96613.44;1026794;28;20027;-71
2021/11/09 00:34:41;;;;;;;30.87;16.57;;;;;;;-1.74;100.00;96633.69;1027468;28;20042;-70
2021/11/09 00:35:13;;;;;;;36.87;16.80;;;;;;;-1.78;100.00;96624.69;1026763;28;20023;-71
2021/11/09 00:35:43;;;;;;;34.65;16.15;;;;;;;-1.74;100.00;96625.97;1019006;29;20142;-70
2021/11/09 00:36:14;;;;;;;33.93;17.57;;;;;;;-1.73;100.00;96632.72;1022813;29;20042;-70
2021/11/09 00:36:44;;;;;;;29.27;15.83;;;;;;;-1.82;100.00;96609.75;1025108;28;20027;-70
2021/11/09 00:37:15;;;;;;;32.63;16.73;;;;;;;-1.71;100.00;96632.53;1022288;28;20027;-70
2021/11/09 00:37:45;;;;;;;34.77;17.83;;;;;;;-1.72;100.00;96629.19;1025902;28;20026;-70
2021/11/09 00:38:16;;;;;;;37.30;18.40;;;;;;;-1.77;100.00;96618.59;1026409;28;20031;-70
2021/11/09 00:38:46;;;;;;;37.70;20.17;;;;;;;-1.73;100.00;96621.63;1034708;28;20024;-69
2021/11/09 00:39:17;;;;;;;42.30;19.07;;;;;;;-1.79;100.00;96610.22;1026548;28;20038;-70
2021/11/09 00:39:47;;;;;;;37.97;19.23;;;;;;;-1.70;100.00;96627.25;1010873;29;20412;-71
2021/11/09 00:40:20;;;;;;;35.80;17.20;;;;;;;-1.76;100.00;96615.03;1014369;29;20527;-70
2021/11/09 00:40:50;;;;;;;35.30;19.33;;;;;;;-1.71;100.00;96628.22;1022804;29;20018;-70
2021/11/09 00:41:20;;;;;;;38.40;18.57;;;;;;;-1.69;100.00;96626.28;1022815;29;20043;-70
2021/11/09 00:41:51;;;;;;;35.90;18.53;;;;;;;-1.69;100.00;96631.41;1018821;29;20039;-70
2021/11/09 00:42:21;;;;;;;34.67;18.03;;;;;;;-1.69;100.00;96623.72;1018870;29;20028;-70
2021/11/09 00:42:52;;;;;;;35.00;18.60;;;;;;;-1.75;100.00;96616.63;1026973;28;20038;-71
2021/11/09 00:43:22;;;;;;;39.70;19.10;;;;;;;-1.71;100.00;96628.22;1026412;28;20449;-70
2021/11/09 00:43:53;;;;;;;34.20;17.73;;;;;;;-1.70;100.00;96621.31;1022682;28;20035;-71
2021/11/09 00:44:23;;;;;;;34.30;17.80;;;;;;;-1.71;100.00;96633.38;1025139;28;20731;-70
2021/11/09 00:44:54;;;;;;;44.60;19.60;;;;;;;-1.70;100.00;96634.97;1023007;28;20039;-70
2021/11/09 00:45:24;;;;;;;38.30;18.37;;;;;;;-1.73;100.00;96624.22;1022768;28;20047;-70
2021/11/09 00:45:54;;;;;;;46.70;20.57;;;;;;;-1.69;100.00;96631.41;1011137;29;20038;-70
2021/11/09 00:46:25;;;;;;;49.70;19.57;;;;;;;-1.69;100.00;96631.41;1018770;29;20430;-71
2021/11/09 00:46:55;;;;;;;53.57;19.77;;;;;;;-1.68;100.00;96637.38;1016342;29;20055;-70
2021/11/09 00:47:26;;;;;;;45.33;19.83;;;;;;;-1.62;100.00;96638.50;1023126;28;20209;-71
2021/11/09 00:47:57;;;;;;;61.00;24.70;;;;;;;-1.60;100.00;96644.28;1022073;28;20154;-71
2021/11/09 00:48:28;;;;;;;64.03;23.50;;;;;;;-1.61;100.00;96637.53;1023614;28;20034;-71
2021/11/09 00:48:58;;;;;;;55.23;23.27;;;;;;;-1.68;100.00;96627.91;1022669;28;20478;-70
2021/11/09 00:49:29;;;;;;;47.13;23.23;;;;;;;-1.59;100.00;96638.16;1026969;28;20453;-70
2021/11/09 00:49:59;;;;;;;62.70;24.97;;;;;;;-1.56;100.00;96646.38;1027079;28;20035;-70
2021/11/09 00:50:30;;;;;;;56.00;22.40;;;;;;;-1.54;100.00;96641.03;1026180;28;20406;-69
2021/11/09 00:51:00;;;;;;;53.20;24.57;;;;;;;-1.59;100.00;96630.44;1022957;29;20027;-70
2021/11/09 00:51:31;;;;;;;60.80;24.43;;;;;;;-1.50;100.00;96642.34;1019063;29;20031;-71
2021/11/09 00:52:01;;;;;;;49.13;22.87;;;;;;;-1.55;100.00;96636.88;1017122;29;20040;-70
2021/11/09 00:52:33;;;;;;;53.20;23.57;;;;;;;-1.48;100.00;96637.81;1023052;29;20055;-70
2021/11/09 00:53:04;;;;;;;47.55;22.88;;;;;;;-1.48;100.00;96648.09;1022590;29;20130;-71
2021/11/09 00:53:34;;;;;;;50.60;22.87;;;;;;;-1.47;100.00;96644.59;1020214;28;20036;-71
2021/11/09 00:54:05;;;;;;;50.13;23.67;;;;;;;-1.48;100.00;96642.97;1011292;29;20272;-70
2021/11/09 00:54:35;;;;;;;53.60;24.57;;;;;;;-1.46;100.00;96643.59;1015302;29;20032;-70
2021/11/09 00:55:07;;;;;;;55.90;22.90;;;;;;;-1.50;100.00;96639.78;1019200;29;20522;-70
2021/11/09 00:55:39;;;;;;;42.85;21.08;;;;;;;-1.45;100.00;96653.72;1031127;28;20173;-69
2021/11/09 00:56:11;;;;;;;56.78;22.30;;;;;;;-1.46;100.00;96643.59;1030959;28;20436;-70
2021/11/09 00:56:41;;;;;;;45.53;22.70;;;;;;;-1.52;100.00;96637.34;1027401;28;20031;-70
2021/11/09 00:57:11;;;;;;;43.03;21.73;;;;;;;-1.54;100.00;96638.47;1028846;28;20061;-70
2021/11/09 00:57:43;;;;;;;46.07;22.57;;;;;;;-1.48;100.00;96642.97;1026202;28;20118;-71
2021/11/09 00:58:13;;;;;;;45.85;21.60;;;;;;;-1.52;100.00;96642.50;1026926;28;20035;-72
2021/11/09 00:58:44;;;;;;;50.17;20.60;;;;;;;-1.50;100.00;96639.78;1026499;28;20023;-71
2021/11/09 00:59:14;;;;;;;50.10;21.80;;;;;;;-1.50;100.00;96655.22;1030985;28;20073;-70
2021/11/09 00:59:45;;;;;;;43.75;20.95;;;;;;;-1.52;100.00;96646.84;1026912;28;20042;-70
2021/11/09 01:00:18;;;;;;;40.67;20.67;;;;;;;-1.56;100.00;96645.56;1026632;28;20019;-70
2021/11/09 01:00:48;;;;;;;45.92;22.02;;;;;;;-1.54;100.00;96647.00;1026978;28;20054;-70
2021/11/09 01:01:19;;;;;;;46.40;20.60;;;;;;;-1.55;100.00;96650.53;1027297;28;20031;-71
2021/11/09 01:01:49;;;;;;;46.40;20.50;;;;;;;-1.64;100.00;96641.25;1027022;28;20026;-70
2021/11/09 01:02:20;;;;;;;45.47;21.23;;;;;;;-1.58;100.00;96652.63;1018951;29;20023;-71
2021/11/09 01:02:51;;;;;;;41.87;19.63;;;;;;;-1.61;100.00;96648.63;1022941;29;20098;-70
2021/11/09 01:03:21;;;;;;;36.73;19.00;;;;;;;-1.66;100.00;96643.97;1023182;29;20064;-69
2021/11/09 01:03:52;;;;;;;47.20;19.33;;;;;;;-1.62;100.00;96646.22;1026763;28;20030;-71
2021/11/09 01:04:23;;;;;;;38.67;19.20;;;;;;;-1.65;100.00;96647.34;1029892;28;20041;-70
2021/11/09 01:04:53;;;;;;;36.73;19.20;;;;;;;-1.66;100.00;96649.09;1027008;28;20457;-71
2021/11/09 01:05:27;;;;;;;46.00;19.77;;;;;;;-1.71;100.00;96635.94;1026979;28;20027;-70
2021/11/09 01:05:58;;;;;;;38.42;20.52;;;;;;;-1.72;100.00;96636.09;1026678;28;20029;-71
2021/11/09 01:06:28;;;;;;;37.33;19.53;;;;;;;-1.77;100.00;96634.03;1023642;28;20058;-70
2021/11/09 01:06:59;;;;;;;40.07;19.57;;;;;;;-1.71;100.00;96642.84;1026693;28;20018;-70
2021/11/09 01:07:30;;;;;;;43.37;19.07;;;;;;;-1.80;100.00;96636.13;1027054;28;20026;-71
2021/11/09 01:08:03;;;;;;;37.83;18.63;;;;;;;-1.79;100.00;96632.56;1026096;28;20029;-70
2021/11/09 01:08:34;;;;;;;40.45;20.38;;;;;;;-1.71;100.00;96650.56;1026807;28;20046;-71
2021/11/09 01:09:05;;;;;;;37.43;19.43;;;;;;;-1.72;100.00;96643.81;1027463;28;20042;-70
2021/11/09 01:09:35;;;;;;;37.92;19.20;;;;;;;-1.73;100.00;96639.66;1022704;28;20470;-70
2021/11/09 01:10:07;;;;;;;36.83;18.93;;;;;;;-1.74;100.00;96641.41;1023024;29;20031;-70
2021/11/09 01:10:45;;;;;;;35.47;19.08;;;;;;;-1.73;100.00;96644.78;1023027;29;20027;-70
2021/11/09 01:11:16;;;;;;;41.28;20.23;;;;;;;-1.71;100.00;96643.66;1028640;28;20078;-71
2021/11/09 01:11:46;;;;;;;38.40;19.10;;;;;;;-1.77;100.00;96634.03;1034991;28;20037;-70
2021/11/09 01:12:16;;;;;;;38.33;19.43;;;;;;;-1.66;100.00;96646.53;1032235;28;20443;-71
2021/11/09 01:12:47;;;;;;;40.57;21.80;;;;;;;-1.71;100.00;96637.69;1030393;28;20034;-70
2021/11/09 01:13:20;;;;;;;46.73;23.63;;;;;;;-1.64;100.00;96643.00;1030695;28;20038;-70
2021/11/09 01:13:50;;;;;;;51.30;27.08;;;;;;;-1.67;100.00;96644.94;1027247;28;20525;-71
2021/11/09 01:14:21;;;;;;;56.23;27.47;;;;;;;-1.69;100.00;96641.72;1026974;28;20035;-70
2021/11/09 01:14:52;;;;;;;63.35;30.98;;;;;;;-1.72;100.00;96626.59;1022446;29;20413;-70
2021/11/09 01:15:22;;;;;;;58.20;27.73;;;;;;;-1.67;100.00;96637.22;1015130;29;20035;-71
2021/11/09 01:15:53;;;;;;;54.43;27.27;;;;;;;-1.69;100.00;96636.56;1018947;29;20023;-71
2021/11/09 01:16:24;;;;;;;54.47;26.88;;;;;;;-1.75;100.00;96626.94;1022658;29;20039;-70
2021/11/09 01:16:54;;;;;;;54.57;28.73;;;;;;;-1.74;100.00;96622.59;1027088;28;20482;-70
2021/11/09 01:17:25;;;;;;;56.57;28.20;;;;;;;-1.72;100.00;96634.31;1030736;28;20034;-71
2021/11/09 01:17:56;;;;;;;55.57;29.73;;;;;;;-1.74;100.00;96638.84;1023395;28;21072;-70
2021/11/09 01:18:37;;;;;;;46.70;25.97;;;;;;;-1.69;100.00;96635.78;1018751;29;20427;-71
2021/11/09 01:19:09;;;;;;;60.13;27.73;;;;;;;-1.70;100.00;96644.47;1018082;29;20667;-70
2021/11/09 01:19:39;;;;;;;50.67;27.40;;;;;;;-1.74;100.00;96635.47;1026919;28;20119;-70
2021/11/09 01:20:12;;;;;;;47.93;24.40;;;;;;;-1.72;100.00;96639.47;1028806;28;20041;-70
2021/11/09 01:20:42;;;;;;;50.17;26.88;;;;;;;-1.71;100.00;96635.13;1030326;28;20030;-71
2021/11/09 01:21:15;;;;;;;47.37;25.03;;;;;;;-1.77;100.00;96633.22;1030780;28;20544;-70
2021/11/09 01:21:45;;;;;;;49.55;22.23;;;;;;;-1.79;100.00;96625.66;1018831;29;20136;-70
2021/11/09 01:22:16;;;;;;;39.57;23.10;;;;;;;-1.76;100.00;96640.75;1018948;29;20090;-71
2021/11/09 01:22:50;;;;;;;40.47;20.17;;;;;;;-1.79;100.00;96630.78;1019171;28;20549;-70
2021/11/09 01:23:21;;;;;;;49.83;23.45;;;;;;;-1.82;100.00;96625.97;1026905;28;20070;-71
2021/11/09 01:23:54;;;;;;;42.30;20.75;;;;;;;-1.78;100.00;96631.59;1019466;29;20494;-70
2021/11/09 01:24:24;;;;;;;39.90;19.50;;;;;;;-1.77;100.00;96636.59;1022121;28;20030;-69
2021/11/09 01:24:55;;;;;;;46.70;22.83;;;;;;;-1.84;100.00;96621.97;1022935;29;20022;-71
2021/11/09 01:25:26;;;;;;;33.90;20.50;;;;;;;-1.78;100.00;96636.75;1023363;28;20026;-70
2021/11/09 01:25:57;;;;;;;31.27;18.45;;;;;;;-1.74;100.00;96641.41;1018946;29;20020;-70
2021/11/09 01:26:27;;;;;;;46.67;21.33;;;;;;;-1.77;100.00;96646.88;1025315;28;20031;-71
2021/11/09 01:26:58;;;;;;;39.47;19.50;;;;;;;-1.75;100.00;96641.56;1019037;29;20031;-70
2021/11/09 01:27:28;;;;;;;43.07;18.83;;;;;;;-1.81;100.00;96635.31;1030883;28;20022;-71
2021/11/09 01:27:59;;;;;;;37.90;19.57;;;;;;;-1.74;100.00;96644.00;1029654;28;20022;-68
2021/11/09 01:28:29;;;;;;;35.70;19.43;;;;;;;-1.82;100.00;96633.69;1030904;28;20011;-70
2021/11/09 01:29:05;;;;;;;39.50;20.10;;;;;;;-1.78;100.00;96642.69;1018672;29;20062;-70
2021/11/09 01:29:36;;;;;;;39.05;18.65;;;;;;;-1.78;100.00;96640.09;1022727;28;20031;-70
2021/11/09 01:30:07;;;;;;;37.87;19.30;;;;;;;-1.73;100.00;96643.00;1022606;29;20034;-70
2021/11/09 01:30:38;;;;;;;36.60;20.95;;;;;;;-1.80;100.00;96639.50;1019204;29;20051;-71
2021/11/09 01:31:09;;;;;;;41.37;21.03;;;;;;;-1.75;100.00;96642.34;1018950;29;20186;-70
2021/11/09 01:31:40;;;;;;;37.83;20.30;;;;;;;-1.75;100.00;96646.72;1022129;28;20031;-70
2021/11/09 01:32:10;;;;;;;37.13;19.53;;;;;;;-1.75;100.00;96644.13;1022185;29;20478;-70
2021/11/09 01:32:41;;;;;;;41.17;19.73;;;;;;;-1.77;100.00;96638.38;1023071;28;20063;-71
2021/11/09 01:33:11;;;;;;;40.10;20.70;;;;;;;-1.78;100.00;96640.09;1019700;29;20512;-70
2021/11/09 01:33:42;;;;;;;40.97;19.90;;;;;;;-1.77;100.00;96643.50;1015037;29;20080;-71
2021/11/09 01:34:12;;;;;;;38.73;20.60;;;;;;;-1.83;100.00;96634.66;1016309;29;20035;-70
2021/11/09 01:34:43;;;;;;;50.70;20.50;;;;;;;-1.81;100.00;96639.63;1018934;29;20455;-71
2021/11/09 01:35:13;;;;;;;41.33;19.27;;;;;;;-1.79;100.00;96640.28;1020823;29;20434;-71
2021/11/09 01:35:43;;;;;;;43.07;20.27;;;;;;;-1.87;100.00;96635.16;1018961;29;20447;-70
2021/11/09 01:36:14;;;;;;;36.70;19.63;;;;;;;-1.81;100.00;96643.03;1023039;28;20525;-71
2021/11/09 01:36:45;;;;;;;37.53;19.60;;;;;;;-1.84;100.00;96639.97;1026311;28;20071;-70
2021/11/09 01:37:15;;;;;;;34.40;17.80;;;;;;;-1.84;100.00;96643.34;1026764;28;20030;-70
2021/11/09 01:37:46;;;;;;;34.67;18.90;;;;;;;-1.87;100.00;96643.69;1026348;28;20026;-70
2021/11/09 01:38:16;;;;;;;33.60;18.37;;;;;;;-1.89;100.00;96635.31;1026742;28;20030;-70
2021/11/09 01:38:47;;;;;;;31.23;17.27;;;;;;;-1.90;100.00;96641.44;1031069;28;20101;-71
2021/11/09 01:39:17;;;;;;;35.80;17.47;;;;;;;-1.94;100.00;96635.00;1026463;28;20022;-71
2021/11/09 01:39:48;;;;;;;35.97;17.20;;;;;;;-1.94;100.00;96637.56;1026800;28;20042;-70
2021/11/09 01:40:20;;;;;;;35.77;17.70;;;;;;;-1.95;100.00;96638.53;1026977;28;20053;-71
2021/11/09 01:40:50;;;;;;;29.95;16.80;;;;;;;-2.00;100.00;96625.38;1026815;28;20394;-71
2021/11/09 01:41:21;;;;;;;33.83;18.30;;;;;;;-1.98;100.00;96631.97;1026948;28;20121;-71
2021/11/09 01:41:51;;;;;;;35.43;18.00;;;;;;;-1.99;100.00;96638.03;1030449;28;20141;-70
2021/11/09 01:42:22;;;;;;;35.20;17.07;;;;;;;-2.02;100.00;96635.78;1026706;28;20038;-71
2021/11/09 01:42:54;;;;;;;32.70;16.83;;;;;;;-2.04;100.00;96621.50;1027188;28;20031;-70
2021/11/09 01:43:24;;;;;;;33.58;16.63;;;;;;;-2.03;100.00;96630.81;1023962;28;20037;-71
2021/11/09 01:43:55;;;;;;;30.17;17.63;;;;;;;-2.06;100.00;96618.28;1022795;29;20058;-71
2021/11/09 01:44:25;;;;;;;36.33;16.83;;;;;;;-2.06;100.00;96626.81;1022877;29;20066;-71
2021/11/09 01:44:56;;;;;;;36.70;18.57;;;;;;;-2.05;100.00;96619.88;1014735;29;20036;-70
2021/11/09 01:45:26;;;;;;;34.87;18.70;;;;;;;-2.09;100.00;96624.56;1030785;28;20037;-70
2021/11/09 01:45:57;;;;;;;35.47;17.10;;;;;;;-2.07;100.00;96626.97;1027215;28;20369;-70
2021/11/09 01:46:27;;;;;;;30.17;15.23;;;;;;;-2.08;100.00;96622.78;1026043;28;20034;-68
2021/11/09 01:46:58;;;;;;;39.33;15.40;;;;;;;-2.09;100.00;96624.56;1024316;28;20494;-70
2021/11/09 01:47:28;;;;;;;34.73;16.97;;;;;;;-2.12;100.00;96627.44;1020615;28;20569;-71
2021/11/09 01:47:59;;;;;;;31.50;15.60;;;;;;;-2.13;100.00;96629.22;1024793;28;20030;-69
2021/11/09 01:48:29;;;;;;;27.07;17.30;;;;;;;-2.09;100.00;96628.91;1025513;28;20432;-71
2021/11/09 01:49:00;;;;;;;33.53;16.50;;;;;;;-2.12;100.00;96627.44;1022117;28;20113;-70
2021/11/09 01:49:30;;;;;;;32.20;16.70;;;;;;;-2.11;100.00;96630.81;1018502;29;20577;-70
2021/11/09 01:50:00;;;;;;;28.93;16.00;;;;;;;-2.13;100.00;96634.34;1025459;28;20573;-70
2021/11/09 01:50:37;;;;;;;37.37;16.77;;;;;;;-2.13;100.00;96634.34;1018458;28;20067;-70
2021/11/09 01:51:09;;;;;;;39.90;16.58;;;;;;;-2.22;100.00;96606.22;1028358;28;20533;-70
2021/11/09 01:51:40;;;;;;;36.38;16.80;;;;;;;-2.13;100.00;96624.06;1032937;28;20033;-71
2021/11/09 01:52:11;;;;;;;32.13;15.77;;;;;;;-2.18;100.00;96621.19;1034454;28;20108;-70
2021/11/09 01:52:41;;;;;;;28.77;15.00;;;;;;;-2.13;100.00;96624.06;1022378;29;20058;-71
2021/11/09 01:53:12;;;;;;;28.13;14.80;;;;;;;-2.13;100.00;96624.06;1022861;28;20033;-71
2021/11/09 01:53:46;;;;;;;31.37;16.10;;;;;;;-2.18;100.00;96621.19;1025996;28;20490;-70
2021/11/09 01:54:17;;;;;;;20.33;14.63;;;;;;;-2.15;100.00;96630.34;1023915;28;20035;-70
2021/11/09 01:54:47;;;;;;;29.20;15.87;;;;;;;-2.16;100.00;96631.31;1030202;28;20030;-70
2021/11/09 01:55:19;;;;;;;31.70;16.63;;;;;;;-2.17;100.00;96622.78;1026377;28;20029;-70
2021/11/09 01:55:50;;;;;;;30.73;15.68;;;;;;;-2.26;100.00;96612.66;1018419;29;20031;-70
2021/11/09 01:56:23;;;;;;;35.50;16.80;;;;;;;-2.24;100.00;96623.59;1014529;29;20036;-70
2021/11/09 01:56:53;;;;;;;31.85;16.13;;;;;;;-2.28;100.00;96617.97;1019561;28;20028;-70
2021/11/09 01:57:25;;;;;;;31.60;15.80;;;;;;;-2.20;100.00;96633.41;1026389;28;20502;-70
2021/11/09 01:57:56;;;;;;;25.75;15.57;;;;;;;-2.29;100.00;96624.06;1024006;28;20254;-70
2021/11/09 01:58:27;;;;;;;30.02;15.82;;;;;;;-2.20;100.00;96627.44;1021848;29;20083;-70
2021/11/09 01:58:58;;;;;;;30.83;15.30;;;;;;;-2.21;100.00;96634.38;1018155;29;20028;-72
2021/11/09 01:59:30;;;;;;;30.63;15.80;;;;;;;-2.28;100.00;96620.56;1026637;28;20018;-71
2021/11/09 02:00:04;;;;;;;32.65;17.38;;;;;;;-2.22;100.00;96630.16;1023379;29;20038;-70
2021/11/09 02:00:43;;;;;;;30.75;15.32;;;;;;;-2.28;100.00;96625.69;1027409;28;20023;-70
2021/11/09 02:01:16;;;;;;;33.30;15.40;;;;;;;-2.21;100.00;96634.38;1031708;28;20023;-71
2021/11/09 02:01:46;;;;;;;29.92;16.13;;;;;;;-2.20;100.00;96633.41;1033649;28;20529;-71
2021/11/09 02:02:19;;;;;;;29.23;15.10;;;;;;;-2.19;100.00;96634.19;1033497;28;20061;-70
2021/11/09 02:02:50;;;;;;;30.80;16.20;;;;;;;-2.21;100.00;96623.28;1036917;28;20461;-70
2021/11/09 02:03:21;;;;;;;27.67;15.15;;;;;;;-2.26;100.00;96626.31;1027602;28;20505;-70
2021/11/09 02:03:54;;;;;;;26.17;15.38;;;;;;;-2.24;100.00;96626.97;1023362;28;20034;-70
2021/11/09 02:04:24;;;;;;;36.20;16.33;;;;;;;-2.25;100.00;96629.69;1027717;28;20541;-70
2021/11/09 02:04:55;;;;;;;32.00;15.53;;;;;;;-2.23;100.00;96631.13;1027964;28;20113;-70
2021/11/09 02:05:27;;;;;;;31.83;14.83;;;;;;;-2.30;100.00;96617.31;1025704;28;20031;-71
2021/11/09 02:05:58;;;;;;;33.78;14.93;;;;;;;-2.31;100.00;96613.16;1023864;29;20050;-71
2021/11/09 02:06:28;;;;;;;34.70;15.70;;;;;;;-2.23;100.00;96627.78;1028011;28;20541;-70
2021/11/09 02:06:59;;;;;;;29.07;14.20;;;;;;;-2.24;100.00;96631.31;1027660;28;20162;-70
2021/11/09 02:07:29;;;;;;;27.67;14.63;;;;;;;-2.22;100.00;96630.16;1020174;29;20027;-71
2021/11/09 02:08:00;;;;;;;30.17;15.83;;;;;;;-2.23;100.00;96630.34;1023148;28;20589;-70
2021/11/09 02:08:31;;;;;;;34.95;14.88;;;;;;;-2.32;100.00;96618.44;1019894;29;20032;-69
2021/11/09 02:09:13;;;;;;;51.50;15.90;;;;;;;-2.34;100.00;96615.25;1023743;28;20430;-71
2021/11/09 02:09:43;;;;;;;36.22;15.38;;;;;;;-2.26;100.00;96633.22;1027599;28;20030;-70
2021/11/09 02:10:15;;;;;;;35.20;14.87;;;;;;;-2.36;100.00;96623.09;1027970;28;20038;-70
2021/11/09 02:10:46;;;;;;;34.13;15.32;;;;;;;-2.26;100.00;96634.03;1023249;28;20479;-70
2021/11/09 02:11:17;;;;;;;30.85;16.67;;;;;;;-2.27;100.00;96636.78;1024048;28;20031;-72
2021/11/09 02:11:48;;;;;;;35.07;15.37;;;;;;;-2.29;100.00;96634.34;1023784;29;20019;-71
2021/11/09 02:12:18;;;;;;;33.70;15.13;;;;;;;-2.28;100.00;96632.56;1024396;28;20106;-70
2021/11/09 02:12:49;;;;;;;29.67;15.20;;;;;;;-2.29;100.00;96634.34;1031477;28;20026;-68
2021/11/09 02:13:20;;;;;;;36.03;16.13;;;;;;;-2.30;100.00;96637.88;1027897;28;20019;-71
2021/11/09 02:13:50;;;;;;;39.85;15.32;;;;;;;-2.30;100.00;96637.88;1023547;29;20078;-71
2021/11/09 02:14:20;;;;;;;40.50;16.73;;;;;;;-2.31;100.00;96636.28;1023717;28;20023;-70
2021/11/09 02:14:51;;;;;;;32.33;16.03;;;;;;;-2.31;100.00;96641.44;1027938;28;20533;-71
2021/11/09 02:15:21;;;;;;;32.23;14.87;;;;;;;-2.30;100.00;96637.88;1030038;28;20393;-70
2021/11/09 02:15:52;;;;;;;37.00;15.97;;;;;;;-2.34;100.00;96621.19;1035829;28;20374;-71
2021/11/09 02:16:22;;;;;;;30.97;14.70;;;;;;;-2.30;100.00;96627.59;1028536;28;20795;-70
2021/11/09 02:16:53;;;;;;;27.83;14.73;;;;;;;-2.28;100.00;96633.41;1027937;28;20023;-70
2021/11/09 02:17:24;;;;;;;31.43;15.53;;;;;;;-2.35;100.00;96626.47;1027779;28;20452;-71
2021/11/09 02:17:55;;;;;;;33.55;15.48;;;;;;;-2.30;100.00;96631.94;1024903;28;20062;-70
2021/11/09 02:18:26;;;;;;;31.53;15.57;;;;;;;-2.38;100.00;96623.28;1023667;28;20019;-70
2021/11/09 02:18:56;;;;;;;31.30;16.58;;;;;;;-2.38;100.00;96619.91;1031741;28;20088;-71
2021/11/09 02:19:27;;;;;;;28.63;15.23;;;;;;;-2.32;100.00;96631.28;1027575;28;20058;-70
2021/11/09 02:19:57;;;;;;;28.03;14.97;;;;;;;-2.38;100.00;96615.56;1027549;28;20138;-72
2021/11/09 02:20:29;;;;;;;32.10;14.20;;;;;;;-2.33;100.00;96620.22;1027880;28;20498;-71
2021/11/09 02:21:10;;;;;;;30.13;14.43;;;;;;;-2.32;100.00;96628.72;1023942;28;20522;-70
2021/11/09 02:21:41;;;;;;;25.05;14.00;;;;;;;-2.31;100.00;96625.19;1023906;29;20035;-71
2021/11/09 02:22:11;;;;;;;29.97;14.23;;;;;;;-2.31;100.00;96626.00;1027721;28;20442;-70
2021/11/09 02:22:42;;;;;;;27.57;14.33;;;;;;;-2.28;100.00;96630.84;1027749;28;20031;-70
2021/11/09 02:23:13;;;;;;;30.70;15.07;;;;;;;-2.38;100.00;96619.91;1027641;28;20037;-70
2021/11/09 02:23:43;;;;;;;26.27;13.77;;;;;;;-2.33;100.00;96627.13;1023835;28;20762;-71